createdAt,value
2023-03-30T00:01:15.298Z,1.00
2023-03-30T00:04:04.634Z,1.00
2023-03-30T00:06:55.711Z,1.00
2023-03-30T00:09:44.804Z,1.00
2023-03-30T00:12:36.256Z,1.00
2023-03-30T00:15:26.283Z,1.00
2023-03-30T00:18:18.202Z,1.00
2023-03-30T00:21:09.644Z,1.00
2023-03-30T00:23:59.955Z,1.00
2023-03-30T00:26:48.976Z,1.00
2023-03-30T00:29:38.049Z,1.50
2023-03-30T00:32:27.415Z,2.10
2023-03-30T00:35:16.259Z,2.70
2023-03-30T00:38:06.360Z,3.70
2023-03-30T00:40:58.019Z,3.30
2023-03-30T00:44:01.068Z,3.20
2023-03-30T00:46:49.996Z,4.50
2023-03-30T00:49:38.835Z,3.80
2023-03-30T00:52:28.140Z,4.50
2023-03-30T00:55:17.036Z,4.80
2023-03-30T00:58:10.247Z,5.10
2023-03-30T01:01:01.750Z,4.40
2023-03-30T01:03:52.507Z,5.70
2023-03-30T01:06:43.693Z,4.10
2023-03-30T01:09:35.215Z,4.10
2023-03-30T01:12:24.230Z,2.40
2023-03-30T01:15:19.223Z,3.10
2023-03-30T01:18:24.347Z,2.70
2023-03-30T01:22:05.542Z,1.00
2023-03-30T01:25:23.154Z,1.00
2023-03-30T01:28:31.145Z,1.00
2023-03-30T01:31:40.468Z,1.00
2023-03-30T01:34:58.006Z,1.00
2023-03-30T01:38:18.696Z,1.00
2023-03-30T01:41:20.164Z,1.00
2023-03-30T01:44:16.780Z,1.00
2023-03-30T01:47:21.877Z,1.00
2023-03-30T01:50:15.620Z,1.00
2023-03-30T01:53:10.458Z,1.00
2023-03-30T01:56:04.728Z,1.00
2023-03-30T01:59:00.508Z,1.00
2023-03-30T02:01:54.422Z,1.00
2023-03-30T02:04:45.846Z,1.00
2023-03-30T02:07:38.254Z,1.00
2023-03-30T02:10:31.489Z,1.00
2023-03-30T02:13:21.313Z,1.00
2023-03-30T02:16:17.698Z,1.00
2023-03-30T02:19:08.007Z,1.00
2023-03-30T02:21:59.386Z,1.00
2023-03-30T02:24:51.793Z,1.00
2023-03-30T02:27:42.327Z,1.50
2023-03-30T02:30:34.500Z,1.60
2023-03-30T02:33:31.179Z,1.00
2023-03-30T02:36:35.725Z,1.00
2023-03-30T02:39:36.753Z,1.00
2023-03-30T02:42:51.183Z,1.10
2023-03-30T02:45:50.348Z,1.40
2023-03-30T02:48:51.402Z,1.20
2023-03-30T02:51:44.714Z,2.30
2023-03-30T02:54:42.667Z,3.20
2023-03-30T02:57:36.579Z,3.70
2023-03-30T03:00:29.707Z,3.80
2023-03-30T03:03:24.222Z,6.80
2023-03-30T03:06:17.187Z,20.50
2023-03-30T03:09:06.710Z,31.90
2023-03-30T03:11:55.930Z,38.60
2023-03-30T03:14:46.601Z,44.70
2023-03-30T03:17:35.802Z,57.10
2023-03-30T03:20:30.691Z,64.90
2023-03-30T03:23:21.135Z,71.40
2023-03-30T03:26:11.819Z,75.80
2023-03-30T03:31:42.921Z,81.60
2023-03-30T03:34:32.614Z,83.10
2023-03-30T03:37:21.544Z,84.80
2023-03-30T03:40:14.875Z,88.30
2023-03-30T03:43:03.896Z,89.60
2023-03-30T03:45:53.625Z,90.20
2023-03-30T03:48:53.536Z,90.60
2023-03-30T03:51:42.576Z,89.70
2023-03-30T03:54:38.389Z,88.80
2023-03-30T03:57:28.740Z,86.20
2023-03-30T04:00:17.765Z,84.60
2023-03-30T04:03:07.822Z,82.70
2023-03-30T04:06:02.446Z,78.70
2023-03-30T04:08:51.442Z,75.00
2023-03-30T04:11:51.360Z,73.80
2023-03-30T04:14:41.589Z,72.40
2023-03-30T04:17:37.376Z,71.20
2023-03-30T04:20:27.469Z,69.80
2023-03-30T04:26:35.658Z,66.10
2023-03-30T04:29:29.941Z,64.50
2023-03-30T04:32:21.130Z,62.70
2023-03-30T04:41:20.404Z,62.20
2023-03-30T04:44:10.475Z,61.80
2023-03-30T04:46:59.389Z,59.90
2023-03-30T04:49:49.697Z,58.70
2023-03-30T04:52:38.540Z,58.20
2023-03-30T04:58:10.905Z,54.00
2023-03-30T05:00:59.816Z,52.30
2023-03-30T05:03:48.692Z,49.30
2023-03-30T05:06:44.363Z,47.30
2023-03-30T05:09:41.127Z,46.30
2023-03-30T05:12:30.035Z,47.40
2023-03-30T05:15:19.105Z,47.40
2023-03-30T05:18:11.511Z,46.70
2023-03-30T05:21:01.425Z,46.70
2023-03-30T05:23:53.040Z,45.10
2023-03-30T05:26:42.188Z,45.40
2023-03-30T05:29:31.580Z,47.20
2023-03-30T05:37:40.900Z,49.60
2023-03-30T05:40:38.204Z,49.30
2023-03-30T05:43:27.036Z,47.60
2023-03-30T05:46:16.820Z,48.50
2023-03-30T05:49:05.740Z,46.90
2023-03-30T05:51:54.597Z,47.10
2023-03-30T05:54:43.369Z,48.40
2023-03-30T05:57:34.276Z,48.40
2023-03-30T06:00:23.917Z,51.30
2023-03-30T06:03:13.580Z,54.60
2023-03-30T06:06:02.557Z,56.40
2023-03-30T06:08:54.361Z,58.30
2023-03-30T06:11:46.668Z,61.40
2023-03-30T06:14:36.997Z,63.80
2023-03-30T06:17:26.500Z,66.70
2023-03-30T06:20:21.763Z,69.70
2023-03-30T06:23:10.740Z,73.10
2023-03-30T06:25:59.928Z,75.70
2023-03-30T06:28:48.762Z,78.40
2023-03-30T06:31:39.134Z,80.20
2023-03-30T06:34:28.078Z,82.00
2023-03-30T06:37:47.961Z,82.50
2023-03-30T06:40:37.223Z,83.50
2023-03-30T06:43:27.579Z,83.00
2023-03-30T06:46:16.729Z,83.30
2023-03-30T06:49:07.570Z,82.50
2023-03-30T06:51:56.461Z,81.70
2023-03-30T07:29:44.019Z,85.80
2023-03-30T07:32:33.115Z,86.40
2023-03-30T07:38:03.984Z,82.40
2023-03-30T07:40:54.757Z,84.20
2023-03-30T07:49:13.864Z,76.40
2023-03-30T07:52:03.119Z,75.80
2023-03-30T08:00:50.733Z,74.90
2023-03-30T08:15:32.329Z,69.50
2023-03-30T08:18:42.847Z,68.30
2023-03-30T08:21:33.299Z,57.00
2023-03-30T08:32:39.665Z,21.80
2023-03-30T08:35:33.100Z,27.50
2023-03-30T08:38:26.282Z,38.90
2023-03-30T08:41:35.868Z,46.70
2023-03-30T08:44:39.933Z,52.90
2023-03-30T08:47:38.434Z,59.10
2023-03-30T08:53:41.478Z,63.80
2023-03-30T08:56:33.277Z,65.90
2023-03-30T08:59:34.688Z,67.30
2023-03-30T09:02:43.422Z,62.90
2023-03-30T09:14:34.753Z,58.20
2023-03-30T09:17:29.110Z,55.90
2023-03-30T09:20:45.920Z,54.20
2023-03-30T09:33:09.001Z,47.10
2023-03-30T09:36:17.550Z,47.40
2023-03-30T09:42:38.604Z,48.90
2023-03-30T09:45:33.615Z,49.00
2023-03-30T09:48:21.566Z,44.10
2023-03-30T09:51:19.518Z,41.40
2023-03-30T09:54:38.566Z,40.30
2023-03-30T09:58:11.930Z,38.70
2023-03-30T10:01:09.111Z,36.90
2023-03-30T10:04:10.164Z,27.20
2023-03-30T10:07:22.530Z,16.80
2023-03-30T10:13:05.680Z,11.50
2023-03-30T10:15:55.720Z,10.30
2023-03-30T10:18:48.161Z,8.20
2023-03-30T10:25:32.940Z,10.10
2023-03-30T10:36:25.611Z,3.20
2023-03-30T10:39:19.601Z,1.00
2023-03-30T10:42:10.544Z,1.00
2023-03-30T10:45:04.520Z,1.00
2023-03-30T10:48:13.891Z,1.00
2023-03-30T10:51:11.679Z,1.00
2023-03-30T10:54:13.041Z,1.00
2023-03-30T10:57:08.472Z,1.00
2023-03-30T11:03:09.332Z,1.00
2023-03-30T11:12:27.715Z,1.00
2023-03-30T12:43:09.974Z,1.00
2023-03-30T12:54:40.581Z,1.00
2023-03-30T13:05:44.305Z,24.50
2023-03-30T13:08:37.122Z,50.10
2023-03-30T13:11:25.935Z,53.40
2023-03-30T13:14:27.729Z,56.40
2023-03-30T13:17:19.976Z,57.10
2023-03-30T13:20:29.938Z,52.80
2023-03-30T13:23:33.860Z,48.20
2023-03-30T13:26:34.921Z,49.00
2023-03-30T13:29:31.201Z,48.00
2023-03-30T13:32:26.722Z,53.90
2023-03-30T13:35:43.262Z,54.10
2023-03-30T13:38:56.735Z,52.70
2023-03-30T13:41:56.383Z,56.10
2023-03-30T13:44:56.770Z,63.40
2023-03-30T13:47:57.806Z,76.20
2023-03-30T13:51:15.498Z,66.00
2023-03-30T13:54:18.151Z,44.50
2023-03-30T13:57:12.288Z,47.40
2023-03-30T14:00:08.272Z,49.80
2023-03-30T14:02:57.985Z,54.20
2023-03-30T14:05:47.686Z,52.00
2023-03-30T14:08:40.011Z,45.80
2023-03-30T14:11:35.228Z,20.40
2023-03-30T14:14:28.196Z,3.70
2023-03-30T14:17:22.156Z,7.30
2023-03-30T14:32:08.306Z,1.00
2023-03-30T14:36:05.852Z,1.00
2023-03-30T14:46:30.269Z,1.00
2023-03-30T14:52:17.576Z,1.00
2023-03-30T15:00:52.676Z,1.00
2023-03-30T15:04:11.608Z,1.00
2023-03-30T15:07:01.064Z,1.00
2023-03-30T15:09:57.790Z,1.00
2023-03-30T15:16:07.837Z,1.60
2023-03-30T15:19:06.727Z,7.00
2023-03-30T15:22:00.299Z,9.10
2023-03-30T15:24:49.478Z,8.40
2023-03-30T15:27:44.525Z,9.50
2023-03-30T15:36:25.467Z,9.20
2023-03-30T15:39:34.248Z,10.70
2023-03-30T15:42:29.832Z,10.00
2023-03-30T15:45:18.921Z,9.20
2023-03-30T15:48:12.853Z,7.40
2023-03-30T15:51:07.277Z,10.20
2023-03-30T15:54:00.451Z,8.80
2023-03-30T15:57:08.934Z,7.30
2023-03-30T16:00:01.611Z,7.80
2023-03-30T16:02:59.254Z,8.20
2023-03-30T16:05:48.122Z,7.50
2023-03-30T16:08:43.571Z,8.50
2023-03-30T16:11:32.499Z,9.60
2023-03-30T16:14:23.270Z,11.10
2023-03-30T16:17:21.633Z,11.90
2023-03-30T16:20:22.039Z,11.00
2023-03-30T16:23:11.222Z,10.60
2023-03-30T16:26:01.982Z,12.30
2023-03-30T16:31:35.389Z,14.00
2023-03-30T16:34:25.204Z,19.00
2023-03-30T16:42:57.836Z,25.40
2023-03-30T16:48:38.288Z,25.00
2023-03-30T16:51:27.214Z,27.90
2023-03-30T16:54:29.569Z,29.70
2023-03-30T16:57:19.780Z,35.80
2023-03-30T17:00:20.561Z,35.60
2023-03-30T17:05:52.650Z,38.70
2023-03-30T17:14:20.487Z,38.50
2023-03-30T17:17:09.423Z,38.50
2023-03-30T17:20:01.038Z,39.00
2023-03-30T17:22:47.179Z,41.70
2023-03-30T17:25:39.855Z,41.80
2023-03-30T17:32:00.542Z,46.30
2023-03-30T17:34:52.552Z,46.10
2023-03-30T17:40:21.564Z,48.30
2023-03-30T17:43:11.067Z,47.20
2023-03-30T17:46:00.072Z,48.50
2023-03-30T17:48:51.482Z,50.20
2023-03-30T17:54:15.756Z,50.30
2023-03-30T17:57:06.274Z,51.10
2023-03-30T18:05:19.571Z,65.50
2023-03-30T18:08:11.461Z,70.00
2023-03-30T18:11:07.291Z,75.70
2023-03-30T18:14:12.057Z,78.60
2023-03-30T18:17:06.598Z,75.30
2023-03-30T18:19:56.304Z,76.20
2023-03-30T18:22:45.289Z,76.50
2023-03-30T18:25:42.016Z,75.60
2023-03-30T18:28:32.091Z,76.80
2023-03-30T18:31:22.412Z,78.20
2023-03-30T18:34:11.353Z,79.40
2023-03-30T18:37:00.101Z,80.20
2023-03-30T18:39:58.502Z,79.90
2023-03-30T18:48:14.073Z,78.60
2023-03-30T18:54:32.408Z,76.70
2023-03-30T18:57:21.337Z,76.60
2023-03-30T19:00:27.414Z,76.60
2023-03-30T19:03:21.849Z,77.70
2023-03-30T19:06:14.018Z,78.80
2023-03-30T19:09:07.515Z,79.30
2023-03-30T19:11:58.738Z,81.20
2023-03-30T19:14:47.428Z,83.00
2023-03-30T19:17:36.108Z,83.20
2023-03-30T19:20:27.636Z,84.90
2023-03-30T19:23:17.344Z,84.00
2023-03-30T19:26:06.076Z,85.30
2023-03-30T19:28:54.775Z,84.20
2023-03-30T19:31:43.484Z,83.60
2023-03-30T19:34:32.130Z,82.00
2023-03-30T19:37:22.395Z,80.70
2023-03-30T19:40:16.405Z,79.00
2023-03-30T19:43:05.149Z,77.90
2023-03-30T19:45:53.947Z,76.90
2023-03-30T19:48:43.182Z,75.70
2023-03-30T19:51:32.391Z,75.70
2023-03-30T19:54:22.500Z,76.00
2023-03-30T19:57:12.610Z,77.10
2023-03-30T20:00:01.354Z,78.30
2023-03-30T20:02:51.992Z,78.90
2023-03-30T20:05:40.897Z,79.50
2023-03-30T20:08:29.583Z,78.30
2023-03-30T20:11:19.706Z,77.20
2023-03-30T20:14:08.900Z,75.70
2023-03-30T20:16:58.230Z,75.50
2023-03-30T20:19:46.923Z,73.10
2023-03-30T20:22:36.208Z,73.00
2023-03-30T20:25:25.565Z,73.80
2023-03-30T20:28:15.764Z,72.40
2023-03-30T20:31:04.735Z,68.90
2023-03-30T20:33:54.753Z,67.20
2023-03-30T20:36:44.952Z,68.40
2023-03-30T20:39:34.332Z,65.50
2023-03-30T20:42:26.533Z,67.10
2023-03-30T20:45:17.781Z,66.60
2023-03-30T20:48:16.391Z,68.30
2023-03-30T20:51:05.534Z,67.80
2023-03-30T20:53:54.313Z,67.00
2023-03-30T20:56:43.559Z,67.10
2023-03-30T20:59:32.305Z,66.00
2023-03-30T21:02:22.683Z,66.90
2023-03-30T21:05:11.572Z,65.70
2023-03-30T21:08:00.313Z,65.50
2023-03-30T21:10:49.119Z,65.20
2023-03-30T21:13:37.980Z,66.80
2023-03-30T21:16:27.111Z,64.90
2023-03-30T21:19:17.241Z,64.60
2023-03-30T21:22:06.138Z,66.00
2023-03-30T21:24:54.830Z,65.10
2023-03-30T21:27:43.521Z,67.00
2023-03-30T21:30:33.446Z,67.10
2023-03-30T21:33:22.363Z,66.50
2023-03-30T21:36:13.189Z,67.50
2023-03-30T21:39:01.938Z,68.00
2023-03-30T21:41:51.424Z,66.50
2023-03-30T21:44:40.030Z,68.50
2023-03-30T21:47:28.750Z,70.20
2023-03-30T21:50:17.694Z,74.80
2023-03-30T21:53:07.764Z,75.20
2023-03-30T21:55:56.521Z,78.10
2023-03-30T21:58:45.470Z,78.70
2023-03-30T22:01:34.236Z,79.40
2023-03-30T22:04:22.960Z,80.10
2023-03-30T22:07:11.741Z,81.10
2023-03-30T22:10:01.737Z,80.90
2023-03-30T22:12:50.505Z,81.20
2023-03-30T22:15:39.258Z,81.70
2023-03-30T22:18:28.028Z,82.40
2023-03-30T22:21:19.205Z,83.00
2023-03-30T22:24:09.228Z,83.50
2023-03-30T22:26:59.404Z,83.90
2023-03-30T22:29:48.153Z,82.90
2023-03-30T22:32:36.883Z,82.80
2023-03-30T22:35:25.628Z,82.00
2023-03-30T22:38:15.403Z,81.70
2023-03-30T22:41:07.543Z,80.90
2023-03-30T22:43:59.302Z,80.40
2023-03-30T22:46:47.976Z,80.20
2023-03-30T22:49:37.097Z,80.70
2023-03-30T22:52:25.868Z,81.20
2023-03-30T22:55:14.816Z,82.90
2023-03-30T22:58:03.775Z,84.00
2023-03-30T23:00:54.015Z,85.50
2023-03-30T23:03:43.254Z,86.70
2023-03-30T23:06:33.888Z,87.10
2023-03-30T23:09:23.075Z,87.70
2023-03-30T23:12:11.802Z,89.20
2023-03-30T23:15:00.960Z,90.00
2023-03-30T23:17:51.285Z,90.10
2023-03-30T23:20:39.956Z,90.70
2023-03-30T23:23:28.655Z,91.80
2023-03-30T23:26:17.350Z,92.40
2023-03-30T23:29:07.378Z,93.10
2023-03-30T23:31:56.340Z,93.20
2023-03-30T23:34:46.758Z,93.40
2023-03-30T23:37:37.017Z,94.30
2023-03-30T23:40:26.119Z,95.50
2023-03-30T23:43:14.769Z,96.40
2023-03-30T23:46:03.746Z,97.10
2023-03-30T23:48:52.606Z,98.70
2023-03-30T23:51:42.681Z,99.40
2023-03-30T23:54:32.089Z,99.90
2023-03-30T23:57:21.546Z,99.90
